createdAt,value
2022-11-03T00:01:45.585Z,7.40
2022-11-03T00:04:15.065Z,7.40
2022-11-03T00:06:43.181Z,7.40
2022-11-03T00:09:12.223Z,7.40
2022-11-03T00:12:19.979Z,7.50
2022-11-03T00:14:46.716Z,7.50
2022-11-03T00:17:13.449Z,7.50
2022-11-03T00:19:40.155Z,7.50
2022-11-03T00:22:06.880Z,7.50
2022-11-03T00:24:33.610Z,7.50
2022-11-03T00:27:00.453Z,7.50
2022-11-03T00:29:27.227Z,7.50
2022-11-03T00:31:53.967Z,7.50
2022-11-03T00:34:20.696Z,7.50
2022-11-03T00:36:47.439Z,7.60
2022-11-03T00:39:14.311Z,7.60
2022-11-03T00:41:41.160Z,7.60
2022-11-03T00:44:10.350Z,7.60
2022-11-03T00:46:37.189Z,7.60
2022-11-03T00:49:04.807Z,7.60
2022-11-03T00:51:34.082Z,7.60
2022-11-03T00:54:02.452Z,7.60
2022-11-03T00:56:31.872Z,7.60
2022-11-03T00:58:59.630Z,7.60
2022-11-03T01:01:29.003Z,7.60
2022-11-03T01:04:16.849Z,7.60
2022-11-03T01:06:51.483Z,7.60
2022-11-03T01:09:24.320Z,7.50
2022-11-03T01:11:58.885Z,7.50
2022-11-03T01:14:39.889Z,7.50
2022-11-03T01:17:12.246Z,7.40
2022-11-03T01:19:39.027Z,7.40
2022-11-03T01:22:09.523Z,7.40
2022-11-03T01:24:38.273Z,7.40
2022-11-03T01:27:05.017Z,7.40
2022-11-03T01:29:31.771Z,7.40
2022-11-03T01:31:58.687Z,7.30
2022-11-03T01:34:25.446Z,7.30
2022-11-03T01:36:52.195Z,7.40
2022-11-03T01:39:19.822Z,7.30
2022-11-03T01:41:49.623Z,7.40
2022-11-03T01:44:16.245Z,7.40
2022-11-03T01:46:47.815Z,7.40
2022-11-03T01:49:25.487Z,7.40
2022-11-03T01:51:59.404Z,7.30
2022-11-03T01:54:28.013Z,7.30
2022-11-03T01:56:55.121Z,7.30
2022-11-03T01:59:24.113Z,7.40
2022-11-03T02:01:51.021Z,7.40
2022-11-03T02:04:22.849Z,7.40
2022-11-03T02:06:52.272Z,7.50
2022-11-03T02:09:19.518Z,7.50
2022-11-03T02:12:05.389Z,7.60
2022-11-03T02:14:32.193Z,7.60
2022-11-03T02:17:05.413Z,7.70
2022-11-03T02:19:44.157Z,7.80
2022-11-03T02:22:37.289Z,7.80
2022-11-03T02:25:14.959Z,7.80
2022-11-03T02:27:41.986Z,7.90
2022-11-03T02:30:09.378Z,7.90
2022-11-03T02:32:52.788Z,7.90
2022-11-03T02:35:43.149Z,8.00
2022-11-03T02:38:12.257Z,8.00
2022-11-03T02:40:43.292Z,8.00
2022-11-03T02:43:10.976Z,8.00
2022-11-03T02:45:38.526Z,8.00
2022-11-03T02:48:05.854Z,8.00
2022-11-03T02:50:34.384Z,8.00
2022-11-03T02:53:01.551Z,8.00
2022-11-03T02:55:39.832Z,8.00
2022-11-03T02:58:17.784Z,8.00
2022-11-03T03:00:59.756Z,8.00
2022-11-03T03:03:30.919Z,8.00
2022-11-03T03:06:02.210Z,7.90
2022-11-03T03:08:29.854Z,7.90
2022-11-03T03:10:57.504Z,7.90
2022-11-03T03:13:24.592Z,7.90
2022-11-03T03:16:19.897Z,7.90
2022-11-03T03:18:51.381Z,7.90
2022-11-03T03:21:18.036Z,7.90
2022-11-03T03:23:57.094Z,8.00
2022-11-03T03:26:40.850Z,8.00
2022-11-03T03:29:14.004Z,8.00
2022-11-03T03:31:43.210Z,8.00
2022-11-03T03:34:31.516Z,7.90
2022-11-03T03:36:58.782Z,7.90
2022-11-03T03:39:31.663Z,7.90
2022-11-03T03:41:59.794Z,7.90
2022-11-03T03:44:27.157Z,7.80
2022-11-03T03:47:04.269Z,7.80
2022-11-03T03:49:30.980Z,7.80
2022-11-03T03:51:59.527Z,7.80
2022-11-03T03:54:26.301Z,7.80
2022-11-03T03:57:02.563Z,7.80
2022-11-03T03:59:29.552Z,7.70
2022-11-03T04:01:56.945Z,7.70
2022-11-03T04:04:23.962Z,7.70
2022-11-03T04:07:10.780Z,7.70
2022-11-03T04:09:37.520Z,7.70
2022-11-03T04:12:23.031Z,7.60
2022-11-03T04:15:08.161Z,7.60
2022-11-03T04:18:01.536Z,7.60
2022-11-03T04:20:46.826Z,7.50
2022-11-03T04:23:13.714Z,7.50
2022-11-03T04:25:40.494Z,7.40
2022-11-03T04:28:12.405Z,7.40
2022-11-03T04:30:39.490Z,7.40
2022-11-03T04:33:18.151Z,7.30
2022-11-03T04:35:45.397Z,7.30
2022-11-03T04:38:15.163Z,7.30
2022-11-03T04:40:45.659Z,7.30
2022-11-03T04:43:15.191Z,7.30
2022-11-03T04:45:44.367Z,7.30
2022-11-03T04:48:16.047Z,7.30
2022-11-03T04:50:46.829Z,7.30
2022-11-03T04:53:16.674Z,7.30
2022-11-03T04:55:44.630Z,7.30
2022-11-03T04:58:20.113Z,7.30
2022-11-03T05:00:52.380Z,7.40
2022-11-03T05:03:27.275Z,7.40
2022-11-03T05:05:53.975Z,7.40
2022-11-03T05:08:21.130Z,7.40
2022-11-03T05:10:49.571Z,7.40
2022-11-03T05:13:27.266Z,7.40
2022-11-03T05:16:00.150Z,7.40
2022-11-03T05:18:38.958Z,7.40
2022-11-03T05:21:18.077Z,7.30
2022-11-03T05:23:48.393Z,7.30
2022-11-03T05:26:29.639Z,7.30
2022-11-03T05:29:21.220Z,7.30
2022-11-03T05:31:48.767Z,7.30
2022-11-03T05:34:30.681Z,7.30
2022-11-03T05:37:13.722Z,7.20
2022-11-03T05:39:43.309Z,7.20
2022-11-03T05:42:22.528Z,7.20
2022-11-03T05:44:50.356Z,7.20
2022-11-03T05:47:32.572Z,7.20
2022-11-03T05:50:18.145Z,7.20
2022-11-03T05:52:46.133Z,7.20
2022-11-03T05:55:34.111Z,7.20
2022-11-03T05:58:14.836Z,7.20
2022-11-03T06:00:48.104Z,7.20
2022-11-03T06:03:24.232Z,7.20
2022-11-03T06:05:51.852Z,7.20
2022-11-03T06:08:25.592Z,7.20
2022-11-03T06:10:54.129Z,7.20
2022-11-03T06:13:29.887Z,7.20
2022-11-03T06:15:59.225Z,7.20
2022-11-03T06:18:30.859Z,7.20
2022-11-03T06:21:07.286Z,7.20
2022-11-03T06:23:35.323Z,7.20
2022-11-03T06:26:03.095Z,7.20
2022-11-03T06:28:31.893Z,7.20
2022-11-03T06:30:58.621Z,7.30
2022-11-03T06:33:31.089Z,7.30
2022-11-03T06:36:13.270Z,7.30
2022-11-03T06:38:40.047Z,7.30
2022-11-03T06:41:15.952Z,7.30
2022-11-03T06:43:42.921Z,7.40
2022-11-03T06:46:24.279Z,7.40
2022-11-03T06:48:57.465Z,7.40
2022-11-03T06:51:26.755Z,7.40
2022-11-03T06:53:55.234Z,7.40
2022-11-03T06:56:24.342Z,7.40
2022-11-03T06:58:53.155Z,7.50
2022-11-03T07:01:22.650Z,7.50
2022-11-03T07:03:51.893Z,7.60
2022-11-03T07:06:25.064Z,7.60
2022-11-03T07:08:54.334Z,7.60
2022-11-03T07:11:26.988Z,7.70
2022-11-03T07:13:59.739Z,7.70
2022-11-03T07:16:56.425Z,7.80
2022-11-03T07:19:27.502Z,7.80
2022-11-03T07:22:08.840Z,7.90
2022-11-03T07:24:44.610Z,7.90
2022-11-03T07:27:23.444Z,8.00
2022-11-03T07:29:51.130Z,8.00
2022-11-03T07:32:30.493Z,8.10
2022-11-03T07:35:05.714Z,8.20
2022-11-03T07:37:32.482Z,8.20
2022-11-03T07:39:59.207Z,8.30
2022-11-03T07:42:27.322Z,8.40
2022-11-03T07:44:55.648Z,8.40
2022-11-03T07:47:25.783Z,8.40
2022-11-03T07:49:53.092Z,8.50
2022-11-03T07:52:21.779Z,8.50
2022-11-03T07:54:49.478Z,8.60
2022-11-03T07:57:24.912Z,8.60
2022-11-03T07:59:53.691Z,8.70
2022-11-03T08:02:57.195Z,8.70
2022-11-03T08:05:23.921Z,8.80
2022-11-03T08:07:50.654Z,8.80
2022-11-03T08:10:17.459Z,8.90
2022-11-03T08:12:44.151Z,8.90
2022-11-03T08:15:11.685Z,9.00
2022-11-03T08:17:38.426Z,9.00
2022-11-03T08:20:05.522Z,9.10
2022-11-03T08:22:32.352Z,9.10
2022-11-03T08:24:59.086Z,9.20
2022-11-03T08:27:27.593Z,9.20
2022-11-03T08:29:54.480Z,9.20
2022-11-03T08:32:21.464Z,9.30
2022-11-03T08:34:48.181Z,9.30
2022-11-03T08:37:14.963Z,9.30
2022-11-03T08:39:41.678Z,9.40
2022-11-03T08:42:08.381Z,9.40
2022-11-03T08:44:35.111Z,9.50
2022-11-03T08:47:01.890Z,9.50
2022-11-03T08:49:28.577Z,9.50
2022-11-03T08:51:55.329Z,9.50
2022-11-03T08:54:22.043Z,9.60
2022-11-03T08:56:49.469Z,9.60
2022-11-03T08:59:18.145Z,9.60
2022-11-03T09:01:45.065Z,9.60
2022-11-03T09:04:12.027Z,9.60
2022-11-03T09:06:38.851Z,9.60
2022-11-03T09:11:52.308Z,9.70
2022-11-03T09:14:19.046Z,9.70
2022-11-03T09:16:45.825Z,9.80
2022-11-03T09:19:12.528Z,9.90
2022-11-03T09:21:39.271Z,10.00
2022-11-03T09:24:06.376Z,10.10
2022-11-03T09:26:33.171Z,10.20
2022-11-03T09:28:59.938Z,10.30
2022-11-03T09:31:28.502Z,10.40
2022-11-03T09:33:55.569Z,10.50
2022-11-03T09:36:22.298Z,10.60
2022-11-03T09:38:49.037Z,10.60
2022-11-03T09:41:26.169Z,10.70
2022-11-03T09:43:57.377Z,10.70
2022-11-03T09:46:24.746Z,10.60
2022-11-03T09:48:51.664Z,10.60
2022-11-03T09:51:21.064Z,10.60
2022-11-03T09:53:48.352Z,10.60
2022-11-03T09:56:21.482Z,10.60
2022-11-03T09:58:53.014Z,10.60
2022-11-03T10:01:21.540Z,10.60
2022-11-03T10:03:48.436Z,10.70
2022-11-03T10:06:17.446Z,10.70
2022-11-03T10:08:46.065Z,10.70
2022-11-03T10:11:13.266Z,10.70
2022-11-03T10:13:42.226Z,10.70
2022-11-03T10:16:11.820Z,10.80
2022-11-03T10:18:38.621Z,10.80
2022-11-03T10:21:07.505Z,10.80
2022-11-03T10:23:34.270Z,10.80
2022-11-03T10:26:17.738Z,10.80
2022-11-03T10:29:05.381Z,10.90
2022-11-03T10:31:34.072Z,11.00
2022-11-03T10:34:00.863Z,11.10
2022-11-03T10:36:29.932Z,11.30
2022-11-03T10:38:57.245Z,11.50
2022-11-03T10:41:32.343Z,11.60
2022-11-03T10:44:04.410Z,11.80
2022-11-03T10:49:19.964Z,12.00
2022-11-03T10:51:48.752Z,12.10
2022-11-03T10:54:17.241Z,12.10
2022-11-03T10:56:45.134Z,12.10
2022-11-03T10:59:27.379Z,12.20
2022-11-03T11:01:54.447Z,12.20
2022-11-03T11:04:21.412Z,12.30
2022-11-03T11:06:48.420Z,12.40
2022-11-03T11:09:27.778Z,12.40
2022-11-03T11:12:07.918Z,12.50
2022-11-03T11:14:37.092Z,12.50
2022-11-03T11:17:04.623Z,12.60
2022-11-03T11:19:51.486Z,12.60
2022-11-03T11:22:23.581Z,12.70
2022-11-03T11:24:50.245Z,12.80
2022-11-03T11:27:32.311Z,12.90
2022-11-03T11:29:59.540Z,13.00
2022-11-03T11:32:44.593Z,13.00
2022-11-03T11:35:12.410Z,13.10
2022-11-03T11:37:39.298Z,13.10
2022-11-03T11:40:16.139Z,13.10
2022-11-03T11:43:01.301Z,13.10
2022-11-03T11:46:05.673Z,13.10
2022-11-03T11:48:33.069Z,13.10
2022-11-03T11:51:00.528Z,13.10
2022-11-03T11:53:31.811Z,13.20
2022-11-03T11:56:02.533Z,13.20
2022-11-03T11:58:48.267Z,13.20
2022-11-03T12:01:30.698Z,13.30
2022-11-03T12:03:59.709Z,13.30
2022-11-03T12:06:39.781Z,13.30
2022-11-03T12:09:13.133Z,13.30
2022-11-03T12:12:07.072Z,13.30
2022-11-03T12:14:36.643Z,13.30
2022-11-03T12:17:18.733Z,13.30
2022-11-03T12:19:50.286Z,13.30
2022-11-03T12:22:26.279Z,13.30
2022-11-03T12:24:54.833Z,13.20
2022-11-03T12:27:24.689Z,13.20
2022-11-03T12:29:55.441Z,13.20
2022-11-03T12:32:33.927Z,13.20
2022-11-03T12:35:06.415Z,13.20
2022-11-03T12:37:33.171Z,13.20
2022-11-03T12:40:00.025Z,13.20
2022-11-03T12:42:26.813Z,13.20
2022-11-03T12:44:53.551Z,13.20
2022-11-03T12:47:20.510Z,13.20
2022-11-03T12:49:47.586Z,13.20
2022-11-03T12:52:14.621Z,13.20
2022-11-03T12:54:42.334Z,13.10
2022-11-03T12:57:09.324Z,13.00
2022-11-03T12:59:36.136Z,13.00
2022-11-03T13:02:03.001Z,13.00
2022-11-03T13:04:29.848Z,12.90
2022-11-03T13:06:56.745Z,12.90
2022-11-03T13:09:23.517Z,12.90
2022-11-03T13:12:08.850Z,12.90
2022-11-03T13:14:35.646Z,12.90
2022-11-03T13:17:03.912Z,12.80
2022-11-03T13:19:30.874Z,12.80
2022-11-03T13:21:57.613Z,12.90
2022-11-03T13:24:24.372Z,12.80
2022-11-03T13:26:51.081Z,12.90
2022-11-03T13:29:17.806Z,12.90
2022-11-03T13:31:44.763Z,13.00
2022-11-03T13:34:11.467Z,13.00
2022-11-03T13:36:38.168Z,13.00
2022-11-03T13:39:04.886Z,13.00
2022-11-03T13:41:31.645Z,13.10
2022-11-03T13:43:58.436Z,13.10
2022-11-03T13:46:25.166Z,13.10
2022-11-03T13:49:40.924Z,13.10
2022-11-03T13:51:38.624Z,13.20
2022-11-03T13:59:39.696Z,13.20
2022-11-03T14:04:53.447Z,13.10
2022-11-03T14:07:20.265Z,13.10
2022-11-03T14:09:47.086Z,13.10
2022-11-03T14:12:31.898Z,13.00
2022-11-03T14:14:59.810Z,13.00
2022-11-03T14:17:26.621Z,12.90
2022-11-03T14:19:56.550Z,12.90
2022-11-03T14:22:26.005Z,12.80
2022-11-03T14:24:52.820Z,12.70
2022-11-03T14:27:20.269Z,12.70
2022-11-03T14:29:50.492Z,12.70
2022-11-03T14:32:18.103Z,12.60
2022-11-03T14:34:45.487Z,12.60
2022-11-03T14:37:12.927Z,12.60
2022-11-03T14:39:40.266Z,12.50
2022-11-03T14:42:14.866Z,12.50
2022-11-03T14:44:41.854Z,12.40
2022-11-03T14:47:11.628Z,12.40
2022-11-03T14:49:38.618Z,12.30
2022-11-03T14:52:07.437Z,12.20
2022-11-03T14:54:35.461Z,12.20
2022-11-03T14:57:02.854Z,12.10
2022-11-03T14:59:29.735Z,12.00
2022-11-03T15:01:57.237Z,12.00
2022-11-03T15:04:24.557Z,11.90
2022-11-03T15:06:51.305Z,11.90
2022-11-03T15:09:18.161Z,11.80
2022-11-03T15:11:45.312Z,11.80
2022-11-03T15:14:12.729Z,11.70
2022-11-03T15:16:40.356Z,11.70
2022-11-03T15:19:07.816Z,11.70
2022-11-03T15:21:35.097Z,11.60
2022-11-03T15:26:52.651Z,11.50
2022-11-03T15:29:19.547Z,11.50
2022-11-03T15:31:48.178Z,11.50
2022-11-03T15:34:16.408Z,11.40
2022-11-03T15:36:43.247Z,11.40
2022-11-03T15:39:11.125Z,11.40
2022-11-03T15:41:38.003Z,11.40
2022-11-03T15:44:04.914Z,11.30
2022-11-03T15:46:31.762Z,11.30
2022-11-03T15:48:58.605Z,11.30
2022-11-03T15:51:25.472Z,11.30
2022-11-03T15:53:57.768Z,11.30
2022-11-03T15:56:26.975Z,11.30
2022-11-03T15:58:53.824Z,11.30
2022-11-03T16:01:23.415Z,11.30
2022-11-03T16:03:50.434Z,11.20
2022-11-03T16:06:17.528Z,11.20
2022-11-03T16:08:45.177Z,11.20
2022-11-03T16:11:12.001Z,11.20
2022-11-03T16:13:39.631Z,11.20
2022-11-03T16:16:15.509Z,11.20
2022-11-03T16:18:42.355Z,11.20
2022-11-03T16:21:09.428Z,11.20
2022-11-03T16:23:36.344Z,11.20
2022-11-03T16:26:05.218Z,11.10
2022-11-03T16:28:31.966Z,11.10
2022-11-03T16:31:00.328Z,11.10
2022-11-03T16:33:27.091Z,11.10
2022-11-03T16:36:01.843Z,11.10
2022-11-03T16:38:37.469Z,11.00
2022-11-03T16:41:16.184Z,11.00
2022-11-03T16:43:43.243Z,11.00
2022-11-03T16:46:10.258Z,10.90
2022-11-03T16:48:37.093Z,10.90
2022-11-03T16:51:04.051Z,10.90
2022-11-03T16:53:30.925Z,10.90
2022-11-03T16:55:57.683Z,10.80
2022-11-03T16:58:24.662Z,10.80
2022-11-03T17:00:51.623Z,10.80
2022-11-03T17:03:18.489Z,10.80
2022-11-03T17:05:45.323Z,10.80
2022-11-03T17:08:31.916Z,10.80
2022-11-03T17:10:59.147Z,10.70
2022-11-03T17:13:25.971Z,10.70
2022-11-03T17:15:52.785Z,10.70
2022-11-03T17:18:19.691Z,10.70
2022-11-03T17:20:46.993Z,10.70
2022-11-03T17:23:14.301Z,10.70
2022-11-03T17:25:41.162Z,10.70
2022-11-03T17:28:10.293Z,10.70
2022-11-03T17:30:39.407Z,10.70
2022-11-03T17:33:08.140Z,10.60
2022-11-03T17:35:39.666Z,10.60
2022-11-03T17:38:13.576Z,10.60
2022-11-03T17:40:42.259Z,10.60
2022-11-03T17:43:23.664Z,10.50
2022-11-03T17:45:50.977Z,10.50
2022-11-03T17:48:18.048Z,10.50
2022-11-03T17:50:53.713Z,10.50
2022-11-03T17:53:32.065Z,10.50
2022-11-03T17:58:50.524Z,10.50
2022-11-03T18:01:23.362Z,10.50
2022-11-03T18:03:50.394Z,10.40
2022-11-03T18:06:19.378Z,10.40
2022-11-03T18:08:47.317Z,10.40
2022-11-03T18:11:47.849Z,10.40
2022-11-03T18:14:17.862Z,10.40
2022-11-03T18:16:52.392Z,10.30
2022-11-03T18:19:34.286Z,10.30
2022-11-03T18:22:11.809Z,10.30
2022-11-03T18:24:38.706Z,10.30
2022-11-03T18:27:11.627Z,10.30
2022-11-03T18:29:38.449Z,10.40
2022-11-03T18:32:05.668Z,10.40
2022-11-03T18:34:34.258Z,10.40
2022-11-03T18:37:02.082Z,10.40
2022-11-03T18:39:29.764Z,10.40
2022-11-03T18:41:56.791Z,10.40
2022-11-03T18:44:25.536Z,10.40
2022-11-03T18:46:52.781Z,10.40
2022-11-03T18:49:19.979Z,10.40
2022-11-03T18:52:04.656Z,10.40
2022-11-03T18:54:32.746Z,10.40
2022-11-03T18:56:59.858Z,10.40
2022-11-03T18:59:32.344Z,10.30
2022-11-03T19:01:59.351Z,10.30
2022-11-03T19:04:26.420Z,10.30
2022-11-03T19:06:53.499Z,10.30
2022-11-03T19:09:25.016Z,10.30
2022-11-03T19:11:54.384Z,10.30
2022-11-03T19:14:23.511Z,10.30
2022-11-03T19:17:21.299Z,10.30
2022-11-03T19:19:40.127Z,10.30
2022-11-03T19:22:21.191Z,10.30
2022-11-03T19:24:48.206Z,10.20
2022-11-03T19:27:16.122Z,10.20
2022-11-03T19:29:43.824Z,10.20
2022-11-03T19:32:16.033Z,10.20
2022-11-03T19:34:43.090Z,10.10
2022-11-03T19:37:10.812Z,10.10
2022-11-03T19:39:40.507Z,10.10
2022-11-03T19:42:28.042Z,10.10
2022-11-03T19:44:56.565Z,10.10
2022-11-03T19:47:26.943Z,10.00
2022-11-03T19:49:55.556Z,10.00
2022-11-03T19:52:27.184Z,10.00
2022-11-03T19:54:54.457Z,10.00
2022-11-03T19:57:21.458Z,10.00
2022-11-03T19:59:48.347Z,10.00
2022-11-03T20:02:15.564Z,10.00
2022-11-03T20:12:15.460Z,10.00
2022-11-03T20:14:51.691Z,9.90
2022-11-03T20:17:23.359Z,9.90
2022-11-03T20:19:54.316Z,9.90
2022-11-03T20:22:32.845Z,9.90
2022-11-03T20:25:22.548Z,9.80
2022-11-03T20:31:13.706Z,9.80
2022-11-03T20:33:57.316Z,9.80
2022-11-03T20:36:32.983Z,9.70
2022-11-03T20:39:29.313Z,9.70
2022-11-03T20:42:02.548Z,9.70
2022-11-03T20:47:19.120Z,9.60
2022-11-03T20:49:46.062Z,9.50
2022-11-03T20:52:13.663Z,9.50
2022-11-03T20:54:44.843Z,9.40
2022-11-03T20:57:13.395Z,9.40
2022-11-03T20:59:41.234Z,9.40
2022-11-03T21:02:13.087Z,9.50
2022-11-03T21:04:41.027Z,9.40
2022-11-03T21:07:11.531Z,9.40
2022-11-03T21:09:38.741Z,9.40
2022-11-03T21:12:06.250Z,9.40
2022-11-03T21:14:34.094Z,9.40
2022-11-03T21:17:19.610Z,9.40
2022-11-03T21:19:58.553Z,9.30
2022-11-03T21:22:53.881Z,9.30
2022-11-03T21:25:23.277Z,9.30
2022-11-03T21:27:50.838Z,9.30
2022-11-03T21:30:18.153Z,9.20
2022-11-03T21:32:45.318Z,9.20
2022-11-03T21:35:16.996Z,9.20
2022-11-03T21:37:43.736Z,9.20
2022-11-03T21:40:11.075Z,9.20
2022-11-03T21:42:56.437Z,9.10
2022-11-03T21:45:23.192Z,9.10
2022-11-03T21:48:13.145Z,9.10
2022-11-03T21:50:41.195Z,9.20
2022-11-03T21:53:08.383Z,9.20
2022-11-03T21:55:35.757Z,9.20
2022-11-03T21:58:02.924Z,9.20
2022-11-03T22:00:29.883Z,9.30
2022-11-03T22:02:56.585Z,9.20
2022-11-03T22:05:23.289Z,9.20
2022-11-03T22:07:50.011Z,9.20
2022-11-03T22:10:17.816Z,9.20
2022-11-03T22:12:44.737Z,9.20
2022-11-03T22:15:30.023Z,9.30
2022-11-03T22:18:04.501Z,9.30
2022-11-03T22:20:49.842Z,9.40
2022-11-03T22:23:35.078Z,9.40
2022-11-03T22:26:20.327Z,9.50
2022-11-03T22:29:07.005Z,9.50
2022-11-03T22:31:42.641Z,9.50
2022-11-03T22:34:27.973Z,9.60
2022-11-03T22:36:54.687Z,9.60
2022-11-03T22:39:39.945Z,9.60
2022-11-03T22:42:26.924Z,9.70
2022-11-03T22:45:12.167Z,9.70
2022-11-03T22:47:38.878Z,9.70
2022-11-03T22:50:05.979Z,9.70
2022-11-03T22:52:32.697Z,9.70
2022-11-03T22:54:59.395Z,9.70
2022-11-03T22:57:26.104Z,9.70
2022-11-03T22:59:52.793Z,9.80
2022-11-03T23:02:19.645Z,9.80
2022-11-03T23:04:46.792Z,9.80
2022-11-03T23:07:13.556Z,9.80
2022-11-03T23:09:40.308Z,9.80
2022-11-03T23:12:07.341Z,9.80
2022-11-03T23:14:54.335Z,9.80
2022-11-03T23:17:40.987Z,9.90
2022-11-03T23:20:27.286Z,9.90
2022-11-03T23:22:54.009Z,9.90
2022-11-03T23:25:20.689Z,9.90
2022-11-03T23:27:47.387Z,9.90
2022-11-03T23:30:14.211Z,10.00
2022-11-03T23:32:40.947Z,10.00
2022-11-03T23:35:08.084Z,10.00
2022-11-03T23:37:34.870Z,10.00
2022-11-03T23:40:02.226Z,10.00
2022-11-03T23:42:29.031Z,10.00
2022-11-03T23:45:30.960Z,10.00
2022-11-03T23:48:16.000Z,10.10
2022-11-03T23:50:43.508Z,10.10
2022-11-03T23:53:10.234Z,10.10
2022-11-03T23:55:56.897Z,10.10
2022-11-03T23:58:23.630Z,10.10
